createdAt,value
2018-04-22T00:26:32.015Z,80.90
2018-04-22T00:28:59.536Z,80.90
2018-04-22T00:31:27.064Z,81.70
2018-04-22T00:33:54.594Z,81.10
2018-04-22T00:36:22.129Z,81.10
2018-04-22T00:38:50.415Z,80.10
2018-04-22T00:41:18.712Z,81.40
2018-04-22T00:43:49.259Z,81.30
2018-04-22T00:46:16.908Z,81.00
2018-04-22T00:48:44.443Z,81.20
2018-04-22T00:51:12.750Z,81.90
2018-04-22T00:53:51.936Z,81.90
2018-04-22T00:56:19.484Z,82.70
2018-04-22T00:58:47.017Z,82.60
2018-04-22T01:01:17.657Z,81.50
2018-04-22T01:03:45.185Z,82.20
2018-04-22T01:06:12.716Z,82.00
2018-04-22T01:08:41.003Z,80.90
2018-04-22T01:11:09.292Z,81.20
2018-04-22T01:19:34.530Z,82.40
2018-04-22T01:22:02.966Z,82.40
2018-04-22T01:24:30.516Z,82.30
2018-04-22T01:27:01.308Z,82.20
2018-04-22T01:29:28.854Z,82.10
2018-04-22T01:31:57.163Z,82.60
2018-04-22T01:34:24.697Z,82.60
2018-04-22T01:36:52.998Z,83.60
2018-04-22T01:39:20.531Z,83.60
2018-04-22T01:41:48.835Z,84.90
2018-04-22T01:44:16.358Z,84.80
2018-04-22T01:46:43.882Z,84.10
2018-04-22T01:49:11.403Z,83.70
2018-04-22T01:51:38.939Z,84.10
2018-04-22T01:54:07.254Z,84.40
2018-04-22T01:56:34.780Z,84.30
2018-04-22T01:59:06.152Z,85.40
2018-04-22T02:01:33.704Z,85.30
2018-04-22T02:04:01.995Z,87.30
2018-04-22T02:06:29.548Z,87.30
2018-04-22T02:08:57.125Z,88.50
2018-04-22T02:11:24.663Z,88.90
2018-04-22T02:13:53.354Z,88.20
2018-04-22T02:16:20.884Z,88.20
2018-04-22T02:22:04.586Z,89.40
2018-04-22T03:16:12.440Z,91.70
2018-04-22T03:18:48.551Z,92.30
2018-04-22T03:21:39.359Z,92.30
2018-04-22T03:24:06.882Z,93.00
2018-04-22T03:26:34.424Z,92.90
2018-04-22T03:29:04.958Z,91.60
2018-04-22T03:31:32.487Z,91.30
2018-04-22T03:34:00.870Z,91.00
2018-04-22T03:36:29.196Z,91.60
2018-04-22T03:38:56.731Z,91.50
2018-04-22T03:41:24.271Z,91.30
2018-04-22T03:43:52.574Z,91.90
2018-04-22T03:46:20.099Z,91.80
2018-04-22T03:48:48.400Z,91.90
2018-04-22T03:51:15.979Z,91.90
2018-04-22T03:53:43.540Z,92.20
2018-04-22T03:56:14.057Z,92.30
2018-04-22T03:58:41.676Z,92.00
2018-04-22T04:01:09.247Z,91.50
2018-04-22T04:03:37.575Z,92.00
2018-04-22T04:06:05.191Z,92.00
2018-04-22T04:08:33.497Z,92.00
2018-04-22T04:11:01.048Z,91.90
2018-04-22T04:13:45.011Z,92.20
2018-04-22T04:19:28.443Z,92.60
2018-04-22T04:25:04.047Z,92.00
2018-04-22T04:27:49.184Z,92.60
2018-04-22T04:30:16.740Z,92.60
2018-04-22T04:32:45.038Z,92.60
2018-04-22T04:35:12.606Z,92.60
2018-04-22T04:37:40.171Z,93.00
2018-04-22T04:40:07.716Z,92.50
2018-04-22T04:42:35.261Z,92.40
2018-04-22T04:45:02.804Z,92.30
2018-04-22T04:47:34.214Z,92.30
2018-04-22T04:50:01.764Z,92.30
2018-04-22T04:52:29.305Z,92.10
2018-04-22T04:54:56.844Z,91.90
2018-04-22T04:57:25.846Z,91.90
2018-04-22T04:59:53.378Z,91.90
2018-04-22T05:02:21.534Z,92.00
2018-04-22T05:04:52.993Z,92.20
2018-04-22T05:07:20.523Z,92.20
2018-04-22T05:09:48.055Z,92.20
2018-04-22T05:12:15.634Z,92.20
2018-04-22T05:15:04.021Z,91.90
2018-04-22T05:17:48.800Z,91.70
2018-04-22T05:28:59.944Z,92.00
2018-04-22T05:31:28.243Z,91.60
2018-04-22T05:33:55.779Z,91.60
2018-04-22T05:36:24.100Z,92.20
2018-04-22T05:38:51.633Z,91.80
2018-04-22T05:41:19.932Z,91.50
2018-04-22T05:43:48.047Z,91.40
2018-04-22T05:46:15.592Z,91.60
2018-04-22T05:48:43.156Z,91.50
2018-04-22T05:51:10.699Z,91.50
2018-04-22T05:53:38.295Z,91.50
2018-04-22T05:56:09.648Z,91.90
2018-04-22T06:14:10.545Z,90.30
2018-04-22T06:22:47.117Z,90.60
2018-04-22T06:25:14.614Z,90.10
2018-04-22T06:27:45.251Z,88.90
2018-04-22T06:30:12.792Z,88.30
2018-04-22T06:32:40.328Z,88.80
2018-04-22T06:35:08.632Z,87.70
2018-04-22T06:37:36.181Z,87.70
2018-04-22T06:40:03.754Z,86.70
2018-04-22T06:42:31.302Z,85.90
2018-04-22T06:45:00.068Z,86.10
2018-04-22T06:47:27.617Z,86.10
2018-04-22T06:49:55.245Z,86.80
2018-04-22T06:52:22.824Z,86.20
2018-04-22T06:55:00.275Z,85.70
2018-04-22T06:57:28.936Z,86.80
2018-04-22T06:59:58.447Z,86.00
2018-04-22T07:02:26.440Z,84.80
2018-04-22T07:14:36.619Z,84.10
2018-04-22T07:26:59.155Z,81.00
2018-04-22T07:29:30.698Z,76.40
2018-04-22T07:31:59.995Z,76.20
2018-04-22T07:34:39.590Z,74.70
2018-04-22T08:16:45.096Z,59.10
2018-04-22T08:22:11.143Z,57.60
2018-04-22T08:27:37.264Z,56.70
2018-04-22T08:30:05.555Z,55.30
2018-04-22T08:32:33.088Z,55.20
2018-04-22T08:35:01.382Z,55.70
2018-04-22T08:37:29.688Z,55.60
2018-04-22T08:39:57.224Z,55.60
2018-04-22T08:42:26.370Z,54.60
2018-04-22T08:44:53.964Z,54.60
2018-04-22T08:47:22.277Z,55.10
2018-04-22T08:49:49.799Z,55.10
2018-04-22T08:52:18.091Z,54.50
2018-04-22T08:54:49.483Z,54.20
2018-04-22T08:57:17.029Z,54.20
2018-04-22T08:59:44.578Z,54.00
2018-04-22T09:02:12.119Z,53.90
2018-04-22T09:04:40.883Z,53.50
2018-04-22T09:07:08.512Z,53.50
2018-04-22T09:09:36.056Z,53.50
2018-04-22T09:12:03.694Z,53.60
2018-04-22T09:14:31.998Z,55.40
2018-04-22T09:16:59.545Z,55.90
2018-04-22T09:25:16.188Z,51.40
2018-04-22T09:27:43.723Z,51.10
2018-04-22T09:30:12.758Z,52.30
2018-04-22T09:32:40.294Z,52.20
2018-04-22T09:35:07.832Z,53.50
2018-04-22T09:37:36.167Z,54.70
2018-04-22T09:40:03.776Z,54.60
2018-04-22T09:42:31.390Z,55.10
2018-04-22T09:44:59.023Z,55.10
2018-04-22T09:47:26.555Z,54.40
2018-04-22T09:49:54.210Z,55.40
2018-04-22T09:52:24.852Z,54.00
2018-04-22T09:54:53.188Z,53.20
2018-04-22T09:57:20.743Z,53.10
2018-04-22T09:59:48.309Z,53.30
2018-04-22T10:02:15.853Z,53.30
2018-04-22T10:04:47.349Z,52.00
2018-04-22T10:07:14.894Z,50.40
2018-04-22T10:09:42.450Z,51.40
2018-04-22T10:12:10.681Z,50.70
2018-04-22T10:23:50.184Z,48.50
2018-04-22T10:26:20.904Z,48.40
2018-04-22T10:28:49.213Z,48.00
2018-04-22T10:31:16.740Z,47.80
2018-04-22T10:33:45.049Z,46.90
2018-04-22T10:36:14.302Z,46.70
2018-04-22T10:38:43.019Z,45.60
2018-04-22T10:54:00.570Z,45.60
2018-04-22T10:56:31.247Z,39.80
2018-04-22T10:58:59.578Z,40.10
2018-04-22T11:01:27.146Z,39.90
2018-04-22T11:03:54.691Z,41.10
2018-04-22T11:06:22.223Z,42.70
2018-04-22T11:08:50.534Z,43.70
2018-04-22T11:11:18.078Z,43.70
2018-04-22T11:13:55.421Z,43.30
2018-04-22T11:16:22.980Z,43.70
2018-04-22T11:18:50.516Z,42.60
2018-04-22T12:13:17.205Z,40.40
2018-04-22T13:17:03.699Z,38.20
2018-04-22T13:28:14.779Z,36.50
2018-04-22T13:30:42.669Z,35.80
2018-04-22T13:33:10.263Z,35.90
2018-04-22T13:35:38.567Z,35.90
2018-04-22T13:38:06.165Z,35.90
2018-04-22T13:40:33.717Z,35.90
2018-04-22T13:43:01.269Z,36.40
2018-04-22T13:45:28.811Z,34.90
2018-04-22T13:47:56.372Z,33.10
2018-04-22T13:50:23.920Z,36.50
2018-04-22T13:52:51.461Z,37.10
2018-04-22T13:55:19.788Z,37.10
2018-04-22T13:57:50.484Z,37.00
2018-04-22T14:00:18.010Z,37.10
2018-04-22T14:02:45.580Z,37.90
2018-04-22T14:05:13.886Z,38.40
2018-04-22T14:07:41.416Z,38.30
2018-04-22T14:10:09.719Z,36.20
2018-04-22T14:12:37.240Z,36.20
2018-04-22T14:15:04.791Z,35.10
2018-04-22T14:17:32.333Z,33.70
2018-04-22T16:15:13.959Z,35.70
2018-04-22T16:17:42.287Z,36.50
2018-04-22T16:20:09.830Z,36.50
2018-04-22T16:28:36.908Z,36.70
2018-04-22T16:31:04.439Z,37.10
2018-04-22T16:33:31.986Z,37.20
2018-04-22T16:35:59.536Z,37.20
2018-04-22T16:38:27.066Z,37.00
2018-04-22T16:40:54.600Z,38.40
2018-04-22T16:43:22.908Z,39.00
2018-04-22T16:45:50.446Z,38.90
2018-04-22T16:48:18.048Z,39.90
2018-04-22T16:50:48.613Z,39.90
2018-04-22T16:53:16.992Z,40.20
2018-04-22T16:55:45.301Z,40.20
2018-04-22T16:58:12.836Z,40.20
2018-04-22T17:00:41.131Z,40.70
2018-04-22T17:03:08.669Z,40.60
2018-04-22T17:05:36.986Z,41.20
2018-04-22T17:08:04.656Z,41.00
2018-04-22T17:10:32.894Z,41.00
2018-04-22T17:13:01.195Z,41.80
2018-04-22T17:21:38.654Z,43.30
2018-04-22T17:24:06.207Z,43.20
2018-04-22T17:26:59.083Z,44.20
2018-04-22T17:29:26.607Z,44.30
2018-04-22T17:31:54.184Z,44.90
2018-04-22T17:34:22.454Z,45.80
2018-04-22T17:36:57.004Z,45.80
2018-04-22T17:39:24.535Z,46.40
2018-04-22T17:41:52.071Z,46.80
2018-04-22T17:44:19.611Z,46.90
2018-04-22T17:46:47.132Z,47.20
2018-04-22T17:49:14.669Z,47.50
2018-04-22T17:51:42.231Z,47.80
2018-04-22T17:54:09.782Z,47.90
2018-04-22T17:56:40.295Z,48.10
2018-04-22T17:59:08.590Z,48.40
2018-04-22T18:01:36.172Z,48.40
2018-04-22T18:04:03.698Z,48.70
2018-04-22T18:06:31.237Z,50.20
2018-04-22T18:08:59.532Z,53.10
2018-04-22T18:11:27.857Z,54.20
2018-04-22T18:13:55.947Z,54.20
2018-04-22T18:16:23.502Z,55.60
2018-04-22T18:18:51.040Z,56.50
2018-04-22T20:14:01.326Z,66.70
2018-04-22T20:16:29.627Z,66.80
2018-04-22T20:19:03.236Z,66.80
2018-04-22T20:21:33.888Z,67.00
2018-04-22T20:26:58.421Z,66.90
2018-04-22T20:29:25.959Z,66.90
2018-04-22T20:31:53.508Z,66.60
2018-04-22T20:34:21.045Z,67.00
2018-04-22T20:36:49.348Z,66.40
2018-04-22T20:39:18.363Z,66.40
2018-04-22T20:54:40.315Z,66.20
2018-04-22T21:06:48.257Z,66.10
2018-04-22T21:09:19.556Z,67.10
2018-04-22T21:24:37.121Z,67.10
2018-04-22T21:27:07.903Z,68.30
2018-04-22T21:29:36.220Z,68.80
2018-04-22T21:32:03.745Z,68.60
2018-04-22T21:34:32.183Z,69.20
2018-04-22T21:36:59.724Z,69.20
2018-04-22T21:39:27.329Z,69.80
2018-04-22T21:41:55.633Z,70.10
2018-04-22T21:44:23.215Z,69.90
2018-04-22T21:46:50.748Z,70.20
2018-04-22T21:49:18.277Z,70.40
2018-04-22T21:51:46.576Z,71.30
2018-04-22T21:54:14.876Z,71.90
2018-04-22T21:56:45.586Z,71.80
2018-04-22T21:59:13.888Z,72.30
2018-04-22T22:01:41.419Z,72.30
2018-04-22T22:04:10.315Z,72.30
2018-04-22T22:06:38.611Z,72.40
2018-04-22T22:09:06.156Z,72.30
2018-04-22T22:11:34.468Z,72.40
2018-04-22T22:14:17.148Z,72.30
2018-04-22T22:16:44.757Z,72.40
2018-04-22T22:19:31.695Z,72.30
2018-04-22T22:24:58.477Z,73.10
2018-04-22T22:27:26.842Z,72.90
2018-04-22T22:29:54.370Z,72.90
2018-04-22T22:32:21.917Z,73.20
2018-04-22T22:34:49.463Z,73.10
2018-04-22T22:37:16.992Z,73.50
2018-04-22T22:39:45.298Z,73.70
2018-04-22T22:42:12.826Z,73.60
2018-04-22T22:44:41.135Z,74.20
2018-04-22T22:47:08.667Z,74.20
2018-04-22T22:49:36.984Z,74.30
2018-04-22T22:52:04.527Z,74.30
2018-04-22T22:54:32.064Z,74.40
2018-04-22T22:57:03.497Z,74.60
2018-04-22T22:59:31.038Z,74.60
2018-04-22T23:01:58.595Z,74.70
2018-04-22T23:04:26.139Z,74.40
2018-04-22T23:06:53.676Z,74.30
2018-04-22T23:09:21.231Z,74.10
2018-04-22T23:11:48.763Z,73.90
2018-04-22T23:14:16.290Z,74.00
2018-04-22T23:16:43.828Z,73.90
2018-04-22T23:22:07.668Z,74.20
2018-04-22T23:24:35.216Z,74.20
2018-04-22T23:27:02.743Z,74.30
2018-04-22T23:29:30.290Z,74.50
2018-04-22T23:31:57.817Z,75.10
2018-04-22T23:34:26.116Z,75.40
2018-04-22T23:36:53.668Z,75.40
2018-04-22T23:39:25.075Z,76.40
2018-04-22T23:41:52.607Z,76.30
2018-04-22T23:44:20.140Z,76.70
2018-04-22T23:46:48.447Z,77.20
2018-04-22T23:49:15.983Z,77.20
2018-04-22T23:51:43.521Z,77.10
2018-04-22T23:54:11.825Z,77.10
2018-04-22T23:56:42.425Z,77.10
2018-04-22T23:59:10.850Z,77.40
